This is the latest recevied weather packets stored in our database for station/object K8RRT. If no packets are shown the sender has not sent any weather packets the latest 10 day(s).
| Time | Temp. | Humidity | Pressure | Rain* | Wind** | Luminosity | Snow |
|---|---|---|---|---|---|---|---|
| 1788308009 | 27.78° C | 88% | 1013.1 hPa | 0 mm | - | 0 W/m² | - |
| 1788307704 | 27.78° C | 87% | 1013.1 hPa | 0 mm | - | 0 W/m² | - |
| 1788307398 | 28.33° C | 85% | 1013.2 hPa | 0 mm | - | 0 W/m² | - |
| 1788307094 | 28.33° C | 85% | 1013.1 hPa | 0 mm | - | 2 W/m² | - |
| 1788306788 | 28.33° C | 85% | 1013 hPa | 0 mm | - | 5 W/m² | - |
| 1788306488 | 28.89° C | 84% | 1013 hPa | 0 mm | - | 8 W/m² | - |
| 1788306183 | 28.89° C | 83% | 1013.1 hPa | 0 mm | - | 13 W/m² | - |
| 1788305878 | 29.44° C | 80% | 1012.9 hPa | 0 mm | - | 17 W/m² | - |
| 1788305573 | 30° C | 78% | 1013.1 hPa | 0 mm | - | 21 W/m² | - |
| 1788305269 | 30.56° C | 76% | 1013 hPa | 0 mm | - | 26 W/m² | - |
| 1788304963 | 31.67° C | 72% | 1012.9 hPa | 0 mm | - | 29 W/m² | - |
| 1788304670 | 31.67° C | 70% | 1013 hPa | 0 mm | - | 34 W/m² | - |
| 1788304356 | 31.67° C | 70% | 1012.9 hPa | 0 mm | - | 39 W/m² | - |
| 1788304051 | 31.67° C | 69% | 1013.1 hPa | 0 mm | - | 41 W/m² | - |
| 1788303745 | 32.22° C | 68% | 1012.9 hPa | 0 mm | - | 47 W/m² | - |
| 1788303440 | 32.22° C | 69% | 1012.8 hPa | 0 mm | - | 57 W/m² | - |
| 1788303139 | 32.22° C | 69% | 1012.6 hPa | 0 mm | - | 60 W/m² | - |
| 1788302831 | 32.22° C | 69% | 1013.1 hPa | 0 mm | - | 58 W/m² | - |
| 1788302527 | 32.22° C | 68% | 1012.9 hPa | 0 mm | - | 65 W/m² | - |
| 1788302223 | 32.78° C | 67% | 1012.7 hPa | 0 mm | - | 65 W/m² | - |
| 1788301923 | 33.33° C | 64% | 1013.1 hPa | 0 mm | - | 138 W/m² | - |
| 1788301614 | 33.89° C | 63% | 1012.9 hPa | 0 mm | - | 141 W/m² | - |
| 1788301310 | 33.89° C | 62% | 1012.8 hPa | 0 mm | - | 162 W/m² | - |
| 1788301005 | 34.44° C | 62% | 1013 hPa | 0 mm | - | 177 W/m² | - |
| 1788300701 | 34.44° C | 61% | 1013.1 hPa | 0 mm | - | 177 W/m² | - |
* Rain latest hour (hover to see other rain measurements)
** Current wind speed in m/s (hover to see current wind gust speed)